createdAt,value
2018-04-07T00:01:03.453Z,6.90
2018-04-07T00:03:37.186Z,6.90
2018-04-07T00:06:11.345Z,6.80
2018-04-07T00:08:45.105Z,6.70
2018-04-07T00:11:18.779Z,6.40
2018-04-07T00:13:53.013Z,6.30
2018-04-07T00:16:27.000Z,6.10
2018-04-07T00:19:01.736Z,6.00
2018-04-07T00:21:36.451Z,6.10
2018-04-07T00:24:11.481Z,6.00
2018-04-07T00:26:47.658Z,5.50
2018-04-07T00:29:23.291Z,5.50
2018-04-07T00:31:57.523Z,5.40
2018-04-07T00:34:32.059Z,5.40
2018-04-07T00:37:06.659Z,5.40
2018-04-07T00:39:41.800Z,5.40
2018-04-07T00:42:15.813Z,5.30
2018-04-07T00:44:50.420Z,5.10
2018-04-07T00:47:25.161Z,5.10
2018-04-07T00:49:58.843Z,5.20
2018-04-07T00:52:44.735Z,5.40
2018-04-07T00:55:19.378Z,5.30
2018-04-07T00:57:54.703Z,5.30
2018-04-07T01:00:29.137Z,5.40
2018-04-07T01:03:04.004Z,5.50
2018-04-07T01:05:37.760Z,5.50
2018-04-07T01:08:11.769Z,5.60
2018-04-07T01:10:46.101Z,5.60
2018-04-07T01:13:21.637Z,5.40
2018-04-07T01:15:56.371Z,5.30
2018-04-07T01:18:31.282Z,5.20
2018-04-07T01:21:05.676Z,5.30
2018-04-07T01:23:39.632Z,5.30
2018-04-07T01:26:14.924Z,5.40
2018-04-07T01:28:48.758Z,5.40
2018-04-07T01:31:24.105Z,5.30
2018-04-07T01:33:59.919Z,5.20
2018-04-07T01:36:33.879Z,5.20
2018-04-07T01:39:08.552Z,5.20
2018-04-07T01:41:43.826Z,5.10
2018-04-07T01:44:18.356Z,5.00
2018-04-07T01:46:52.883Z,4.90
2018-04-07T01:49:26.786Z,4.90
2018-04-07T01:52:01.495Z,4.90
2018-04-07T01:54:36.000Z,4.80
2018-04-07T01:57:10.636Z,4.80
2018-04-07T01:59:45.558Z,4.80
2018-04-07T02:02:20.542Z,4.60
2018-04-07T02:04:55.146Z,4.50
2018-04-07T02:07:30.030Z,4.50
2018-04-07T02:10:03.861Z,4.40
2018-04-07T02:12:38.398Z,4.40
2018-04-07T02:15:12.411Z,4.30
2018-04-07T02:17:46.160Z,4.30
2018-04-07T02:20:21.639Z,4.10
2018-04-07T02:22:56.388Z,4.00
2018-04-07T02:25:30.898Z,4.00
2018-04-07T02:28:05.311Z,3.80
2018-04-07T02:30:39.273Z,3.80
2018-04-07T02:33:13.752Z,3.90
2018-04-07T02:35:47.852Z,3.80
2018-04-07T02:38:22.692Z,3.90
2018-04-07T02:40:57.415Z,3.90
2018-04-07T02:43:31.336Z,3.90
2018-04-07T02:46:06.133Z,4.00
2018-04-07T02:48:40.896Z,3.80
2018-04-07T02:51:16.619Z,3.80
2018-04-07T02:53:50.728Z,3.80
2018-04-07T02:56:25.249Z,3.70
2018-04-07T02:58:59.981Z,3.60
2018-04-07T03:01:35.313Z,3.60
2018-04-07T03:04:10.048Z,3.50
2018-04-07T03:06:44.079Z,3.50
2018-04-07T03:09:17.966Z,3.50
2018-04-07T03:11:53.006Z,3.50
2018-04-07T03:14:27.616Z,3.40
2018-04-07T03:17:02.684Z,3.30
2018-04-07T03:19:36.452Z,3.20
2018-04-07T03:22:11.494Z,3.20
2018-04-07T03:24:46.220Z,3.10
2018-04-07T03:27:20.338Z,3.10
2018-04-07T03:29:54.842Z,3.00
2018-04-07T03:32:28.667Z,3.00
2018-04-07T03:35:02.759Z,3.00
2018-04-07T03:37:37.102Z,2.90
2018-04-07T03:40:11.532Z,2.90
2018-04-07T03:42:45.220Z,2.80
2018-04-07T03:45:20.430Z,2.70
2018-04-07T03:47:55.182Z,2.70
2018-04-07T03:50:30.299Z,2.90
2018-04-07T04:06:08.623Z,2.50
2018-04-07T04:08:43.324Z,2.60
2018-04-07T04:11:17.013Z,2.50
2018-04-07T04:13:51.680Z,2.60
2018-04-07T04:16:25.340Z,2.50
2018-04-07T04:18:59.763Z,2.40
2018-04-07T04:21:34.290Z,2.40
2018-04-07T04:24:09.128Z,2.30
2018-04-07T04:26:44.672Z,2.30
2018-04-07T04:29:18.463Z,2.20
2018-04-07T04:31:52.824Z,2.20
2018-04-07T04:34:27.205Z,2.30
2018-04-07T04:37:01.517Z,2.30
2018-04-07T04:39:35.860Z,2.10
2018-04-07T04:42:10.553Z,2.00
2018-04-07T04:44:44.975Z,2.00
2018-04-07T04:47:19.412Z,1.90
2018-04-07T04:49:53.504Z,1.90
2018-04-07T04:52:27.959Z,1.90
2018-04-07T04:55:03.308Z,1.90
2018-04-07T04:57:37.812Z,1.90
2018-04-07T05:00:12.080Z,1.90
2018-04-07T05:02:46.676Z,2.10
2018-04-07T05:05:20.533Z,2.10
2018-04-07T05:07:54.643Z,2.10
2018-04-07T05:10:28.453Z,2.00
2018-04-07T05:13:03.189Z,2.00
2018-04-07T05:15:37.177Z,2.00
2018-04-07T05:18:11.398Z,2.00
2018-04-07T05:20:46.741Z,2.20
2018-04-07T05:23:20.448Z,2.10
2018-04-07T05:25:54.381Z,2.20
2018-04-07T05:28:28.291Z,2.20
2018-04-07T05:31:02.347Z,2.10
2018-04-07T05:33:37.076Z,2.10
2018-04-07T05:36:11.637Z,2.10
2018-04-07T05:38:46.740Z,2.10
2018-04-07T05:41:22.108Z,2.20
2018-04-07T05:43:55.704Z,2.20
2018-04-07T05:46:29.823Z,2.40
2018-04-07T05:49:04.017Z,2.50
2018-04-07T05:51:37.830Z,2.60
2018-04-07T05:54:11.722Z,2.60
2018-04-07T05:56:46.240Z,2.70
2018-04-07T05:59:22.232Z,2.80
2018-04-07T06:01:56.216Z,2.80
2018-04-07T06:04:32.169Z,3.00
2018-04-07T06:07:06.505Z,3.10
2018-04-07T06:09:40.606Z,3.10
2018-04-07T06:12:15.150Z,3.30
2018-04-07T06:14:49.561Z,3.50
2018-04-07T06:17:23.869Z,3.50
2018-04-07T06:19:57.559Z,3.60
2018-04-07T06:22:31.676Z,3.70
2018-04-07T06:25:06.408Z,4.00
2018-04-07T06:27:43.290Z,4.20
2018-04-07T06:30:17.005Z,4.10
2018-04-07T06:32:51.808Z,4.30
2018-04-07T06:35:26.136Z,4.50
2018-04-07T06:38:01.692Z,4.70
2018-04-07T06:40:35.594Z,4.70
2018-04-07T06:43:09.192Z,4.90
2018-04-07T06:45:43.196Z,4.90
2018-04-07T06:48:17.719Z,5.30
2018-04-07T06:50:51.820Z,5.30
2018-04-07T06:53:26.541Z,5.70
2018-04-07T06:56:01.579Z,5.70
2018-04-07T06:58:36.721Z,6.30
2018-04-07T07:01:13.173Z,6.50
2018-04-07T07:03:47.908Z,6.70
2018-04-07T07:06:23.887Z,7.00
2018-04-07T07:08:59.041Z,7.20
2018-04-07T07:11:33.724Z,7.20
2018-04-07T07:14:08.160Z,7.60
2018-04-07T07:16:43.793Z,7.60
2018-04-07T07:19:17.512Z,7.90
2018-04-07T07:21:51.744Z,8.30
2018-04-07T07:24:26.328Z,8.70
2018-04-07T07:27:01.570Z,9.30
2018-04-07T07:29:36.233Z,9.50
2018-04-07T07:32:11.042Z,9.70
2018-04-07T07:34:45.771Z,9.90
2018-04-07T07:37:19.575Z,9.90
2018-04-07T07:39:54.376Z,10.50
2018-04-07T07:42:31.819Z,10.50
2018-04-07T07:45:07.874Z,10.80
2018-04-07T07:47:48.388Z,11.20
2018-04-07T07:50:24.274Z,11.90
2018-04-07T07:52:58.375Z,11.80
2018-04-07T07:55:33.595Z,12.60
2018-04-07T07:58:07.605Z,12.60
2018-04-07T08:00:42.295Z,12.90
2018-04-07T08:03:17.118Z,13.30
2018-04-07T08:05:52.387Z,13.40
2018-04-07T08:08:26.395Z,13.40
2018-04-07T08:11:00.603Z,13.60
2018-04-07T08:13:38.170Z,14.10
2018-04-07T08:16:14.776Z,14.60
2018-04-07T08:18:49.321Z,15.20
2018-04-07T08:21:23.831Z,14.70
2018-04-07T08:23:58.646Z,15.00
2018-04-07T08:26:32.788Z,15.00
2018-04-07T08:29:06.568Z,15.50
2018-04-07T08:31:40.288Z,15.60
2018-04-07T08:34:15.200Z,16.20
2018-04-07T08:36:50.554Z,16.30
2018-04-07T08:39:25.591Z,16.40
2018-04-07T08:42:03.177Z,16.60
2018-04-07T08:44:37.177Z,16.60
2018-04-07T08:47:12.366Z,17.30
2018-04-07T08:49:46.341Z,17.30
2018-04-07T08:52:21.884Z,17.70
2018-04-07T08:54:55.880Z,17.60
2018-04-07T08:57:29.613Z,18.00
2018-04-07T09:00:03.421Z,17.60
2018-04-07T09:02:38.832Z,18.30
2018-04-07T09:05:14.576Z,18.60
2018-04-07T09:07:49.097Z,18.60
2018-04-07T09:10:22.893Z,18.60
2018-04-07T09:12:57.816Z,18.70
2018-04-07T09:15:31.572Z,18.70
2018-04-07T09:18:05.982Z,18.70
2018-04-07T09:20:40.292Z,18.70
2018-04-07T09:23:14.885Z,18.70
2018-04-07T09:25:49.402Z,19.00
2018-04-07T09:28:23.542Z,19.00
2018-04-07T09:31:02.925Z,19.30
2018-04-07T09:33:36.786Z,19.00
2018-04-07T09:36:11.527Z,19.50
2018-04-07T09:38:45.455Z,19.50
2018-04-07T09:41:22.513Z,20.00
2018-04-07T09:43:56.596Z,20.30
2018-04-07T09:46:32.743Z,20.60
2018-04-07T09:49:08.943Z,21.00
2018-04-07T09:51:43.517Z,20.90
2018-04-07T09:54:24.433Z,21.10
2018-04-07T09:56:58.232Z,20.90
2018-04-07T09:59:34.437Z,20.20
2018-04-07T10:02:09.323Z,20.30
2018-04-07T10:04:43.519Z,20.30
2018-04-07T10:07:17.218Z,20.50
2018-04-07T10:09:52.176Z,21.00
2018-04-07T10:12:26.072Z,20.90
2018-04-07T10:15:00.893Z,21.50
2018-04-07T10:17:34.792Z,21.50
2018-04-07T10:20:09.537Z,22.10
2018-04-07T10:22:43.333Z,22.10
2018-04-07T10:25:17.244Z,22.60
2018-04-07T10:27:52.502Z,22.90
2018-04-07T10:30:26.475Z,23.00
2018-04-07T10:33:01.692Z,23.10
2018-04-07T10:35:36.063Z,23.00
2018-04-07T10:38:10.784Z,22.80
2018-04-07T10:40:44.696Z,22.60
2018-04-07T10:43:19.643Z,23.30
2018-04-07T10:45:54.208Z,23.20
2018-04-07T10:48:28.019Z,23.50
2018-04-07T10:51:02.335Z,24.00
2018-04-07T10:53:36.269Z,24.30
2018-04-07T10:56:10.513Z,24.20
2018-04-07T10:58:44.068Z,24.40
2018-04-07T11:01:18.895Z,24.20
2018-04-07T11:03:53.597Z,23.90
2018-04-07T11:06:28.132Z,24.50
2018-04-07T11:09:02.783Z,24.60
2018-04-07T11:11:37.792Z,24.90
2018-04-07T11:14:12.667Z,24.80
2018-04-07T11:16:46.318Z,25.20
2018-04-07T11:19:21.368Z,25.10
2018-04-07T11:21:55.174Z,25.10
2018-04-07T11:24:29.764Z,25.10
2018-04-07T11:27:03.905Z,25.10
2018-04-07T11:29:37.910Z,25.60
2018-04-07T11:32:12.729Z,25.80
2018-04-07T11:34:46.582Z,25.80
2018-04-07T11:37:20.454Z,25.60
2018-04-07T11:39:54.673Z,25.90
2018-04-07T11:42:28.666Z,26.00
2018-04-07T11:45:03.029Z,25.90
2018-04-07T11:47:37.709Z,26.30
2018-04-07T11:50:12.130Z,26.50
2018-04-07T11:52:46.524Z,26.90
2018-04-07T11:55:21.178Z,27.20
2018-04-07T11:57:56.492Z,27.30
2018-04-07T12:00:31.032Z,27.20
2018-04-07T12:03:05.644Z,27.50
2018-04-07T12:05:39.497Z,27.40
2018-04-07T12:08:14.280Z,28.20
2018-04-07T12:10:48.284Z,28.20
2018-04-07T12:13:23.643Z,29.00
2018-04-07T12:15:58.272Z,28.80
2018-04-07T12:18:33.009Z,29.10
2018-04-07T12:21:06.784Z,29.10
2018-04-07T12:23:42.148Z,29.70
2018-04-07T12:26:16.692Z,29.70
2018-04-07T12:28:51.411Z,30.00
2018-04-07T12:31:26.492Z,30.00
2018-04-07T12:34:00.866Z,30.00
2018-04-07T12:36:35.642Z,30.20
2018-04-07T12:39:09.572Z,30.10
2018-04-07T12:41:43.483Z,29.80
2018-04-07T12:44:18.394Z,29.90
2018-04-07T12:46:54.287Z,30.60
2018-04-07T12:49:29.861Z,30.70
2018-04-07T12:52:04.502Z,30.80
2018-04-07T12:54:39.306Z,31.40
2018-04-07T12:57:13.115Z,31.40
2018-04-07T12:59:46.896Z,31.60
2018-04-07T13:02:21.432Z,32.60
2018-04-07T13:04:56.379Z,33.30
2018-04-07T13:07:32.411Z,33.60
2018-04-07T13:10:05.963Z,33.60
2018-04-07T13:12:39.882Z,33.80
2018-04-07T13:15:15.743Z,34.10
2018-04-07T13:17:50.265Z,34.20
2018-04-07T13:20:24.998Z,34.70
2018-04-07T13:22:59.381Z,34.60
2018-04-07T13:25:33.362Z,34.60
2018-04-07T13:28:07.012Z,35.40
2018-04-07T13:30:42.849Z,36.00
2018-04-07T13:33:17.164Z,33.90
2018-04-07T13:35:51.901Z,35.20
2018-04-07T13:38:26.425Z,35.80
2018-04-07T13:41:00.797Z,35.90
2018-04-07T13:43:34.829Z,37.40
2018-04-07T13:46:11.202Z,39.60
2018-04-07T13:48:46.080Z,39.60
2018-04-07T13:51:20.883Z,40.10
2018-04-07T13:53:55.754Z,40.00
2018-04-07T13:56:29.909Z,40.00
2018-04-07T13:59:03.813Z,39.40
2018-04-07T14:01:37.793Z,39.40
2018-04-07T14:04:13.026Z,39.00
2018-04-07T14:06:47.362Z,39.10
2018-04-07T14:09:22.000Z,39.60
2018-04-07T14:11:56.173Z,39.50
2018-04-07T14:14:30.926Z,39.90
2018-04-07T14:17:05.668Z,39.00
2018-04-07T14:19:40.991Z,39.00
2018-04-07T14:22:15.322Z,37.90
2018-04-07T14:24:49.181Z,38.20
2018-04-07T14:27:23.824Z,38.70
2018-04-07T14:29:58.382Z,38.60
2018-04-07T14:32:33.129Z,38.80
2018-04-07T14:35:08.384Z,39.30
2018-04-07T14:37:42.308Z,39.20
2018-04-07T14:40:16.772Z,38.70
2018-04-07T14:42:51.474Z,38.90
2018-04-07T14:45:25.360Z,38.80
2018-04-07T14:47:59.820Z,38.50
2018-04-07T14:50:34.536Z,39.00
2018-04-07T14:53:08.929Z,38.80
2018-04-07T14:55:43.293Z,38.90
2018-04-07T14:58:17.716Z,38.60
2018-04-07T15:00:51.728Z,38.50
2018-04-07T15:03:25.307Z,38.30
2018-04-07T15:06:00.212Z,38.70
2018-04-07T15:08:34.861Z,38.70
2018-04-07T15:11:09.480Z,38.20
2018-04-07T15:13:44.643Z,38.20
2018-04-07T15:16:18.511Z,38.20
2018-04-07T15:18:53.550Z,38.20
2018-04-07T15:21:28.264Z,38.20
2018-04-07T15:24:02.694Z,37.50
2018-04-07T15:26:36.256Z,37.40
2018-04-07T15:29:10.089Z,37.40
2018-04-07T15:31:43.654Z,37.30
2018-04-07T15:34:17.244Z,37.10
2018-04-07T15:36:51.062Z,37.70
2018-04-07T15:39:24.793Z,37.00
2018-04-07T15:41:58.503Z,37.10
2018-04-07T15:44:32.099Z,37.20
2018-04-07T15:47:06.132Z,36.30
2018-04-07T15:49:39.819Z,34.60
2018-04-07T15:52:13.665Z,33.60
2018-04-07T15:54:47.220Z,33.30
2018-04-07T15:57:20.749Z,32.50
2018-04-07T15:59:54.428Z,31.80
2018-04-07T16:02:27.994Z,31.20
2018-04-07T16:05:01.888Z,30.70
2018-04-07T16:07:36.575Z,29.70
2018-04-07T16:10:11.584Z,29.50
2018-04-07T16:12:46.219Z,29.40
2018-04-07T16:15:20.548Z,29.40
2018-04-07T16:17:54.351Z,29.00
2018-04-07T16:20:31.672Z,28.20
2018-04-07T16:23:06.750Z,27.60
2018-04-07T16:25:41.171Z,27.60
2018-04-07T16:28:14.793Z,27.20
2018-04-07T16:30:50.469Z,26.90
2018-04-07T16:33:24.747Z,26.50
2018-04-07T16:35:58.748Z,26.40
2018-04-07T16:38:33.384Z,25.50
2018-04-07T16:41:07.804Z,25.40
2018-04-07T16:43:41.908Z,25.40
2018-04-07T16:46:16.554Z,25.20
2018-04-07T16:48:50.617Z,25.10
2018-04-07T16:51:24.570Z,25.40
2018-04-07T16:53:58.556Z,25.20
2018-04-07T16:56:32.366Z,25.20
2018-04-07T16:59:06.888Z,25.40
2018-04-07T17:01:40.604Z,25.40
2018-04-07T17:04:15.300Z,25.40
2018-04-07T17:06:49.729Z,25.40
2018-04-07T17:09:24.445Z,25.10
2018-04-07T17:11:59.286Z,25.10
2018-04-07T17:14:33.367Z,25.10
2018-04-07T17:17:08.150Z,25.20
2018-04-07T17:19:43.263Z,25.50
2018-04-07T17:22:17.157Z,25.50
2018-04-07T17:24:52.501Z,25.50
2018-04-07T17:27:27.042Z,25.50
2018-04-07T17:30:01.968Z,25.50
2018-04-07T17:32:37.098Z,25.00
2018-04-07T17:35:11.864Z,24.50
2018-04-07T17:37:45.752Z,24.50
2018-04-07T17:40:22.751Z,24.00
2018-04-07T17:42:56.517Z,23.90
2018-04-07T17:45:30.840Z,23.70
2018-04-07T17:48:05.362Z,23.20
2018-04-07T17:50:42.020Z,22.50
2018-04-07T17:53:16.641Z,21.70
2018-04-07T17:55:51.399Z,21.20
2018-04-07T17:58:25.700Z,21.10
2018-04-07T18:00:59.998Z,20.70
2018-04-07T18:03:34.318Z,20.30
2018-04-07T18:06:09.250Z,19.80
2018-04-07T18:08:43.149Z,19.80
2018-04-07T18:11:17.974Z,19.60
2018-04-07T18:13:52.960Z,19.50
2018-04-07T18:16:27.458Z,19.40
2018-04-07T18:19:02.777Z,18.90
2018-04-07T18:21:36.586Z,18.90
2018-04-07T18:24:11.735Z,18.60
2018-04-07T18:26:46.549Z,18.50
2018-04-07T18:29:20.876Z,18.50
2018-04-07T18:31:54.969Z,18.40
2018-04-07T18:34:28.789Z,18.20
2018-04-07T18:37:04.621Z,18.00
2018-04-07T18:39:38.860Z,17.70
2018-04-07T18:42:14.292Z,17.10
2018-04-07T18:44:49.515Z,16.80
2018-04-07T18:47:26.989Z,16.70
2018-04-07T18:50:02.993Z,16.60
2018-04-07T18:52:39.297Z,16.50
2018-04-07T18:55:14.884Z,16.60
2018-04-07T18:57:49.096Z,16.50
2018-04-07T19:00:23.245Z,16.50
2018-04-07T19:02:57.132Z,16.50
2018-04-07T19:05:31.055Z,16.40
2018-04-07T19:08:05.850Z,16.40
2018-04-07T19:10:39.887Z,16.40
2018-04-07T19:13:13.781Z,16.40
2018-04-07T19:15:48.930Z,16.30
2018-04-07T19:18:23.945Z,15.90
2018-04-07T19:20:59.488Z,15.50
2018-04-07T19:23:34.855Z,15.50
2018-04-07T19:26:08.599Z,15.30
2018-04-07T19:28:44.440Z,15.30
2018-04-07T19:31:19.623Z,15.30
2018-04-07T19:33:54.951Z,15.30
2018-04-07T19:36:31.424Z,15.10
2018-04-07T19:39:07.049Z,15.00
2018-04-07T19:41:43.092Z,14.90
2018-04-07T19:44:17.667Z,14.70
2018-04-07T19:46:52.892Z,14.60
2018-04-07T19:49:27.836Z,14.60
2018-04-07T19:52:01.784Z,14.60
2018-04-07T19:54:36.357Z,14.50
2018-04-07T19:57:11.949Z,14.20
2018-04-07T19:59:45.825Z,14.10
2018-04-07T20:02:20.838Z,13.90
2018-04-07T20:04:56.352Z,13.80
2018-04-07T20:07:31.106Z,13.80
2018-04-07T20:10:06.038Z,13.80
2018-04-07T20:12:42.521Z,13.80
2018-04-07T20:15:16.519Z,13.80
2018-04-07T20:17:52.440Z,13.70
2018-04-07T20:20:29.419Z,13.70
2018-04-07T20:23:04.137Z,13.80
2018-04-07T20:25:38.055Z,13.80
2018-04-07T20:28:12.916Z,13.40
2018-04-07T20:30:48.079Z,13.30
2018-04-07T20:33:22.888Z,13.20
2018-04-07T20:35:58.046Z,13.10
2018-04-07T20:38:32.643Z,13.00
2018-04-07T20:41:06.760Z,12.90
2018-04-07T20:43:42.804Z,12.60
2018-04-07T20:46:17.526Z,12.40
2018-04-07T20:48:52.459Z,12.40
2018-04-07T20:51:28.596Z,12.20
2018-04-07T20:54:04.577Z,12.10
2018-04-07T20:56:45.575Z,12.20
2018-04-07T20:59:24.157Z,12.30
2018-04-07T21:01:58.295Z,12.30
2018-04-07T21:04:33.527Z,12.10
2018-04-07T21:07:08.321Z,12.10
2018-04-07T21:09:42.998Z,12.10
2018-04-07T21:12:16.869Z,12.00
2018-04-07T21:14:57.838Z,11.90
2018-04-07T21:17:33.827Z,11.70
2018-04-07T21:20:07.610Z,11.50
2018-04-07T21:22:44.576Z,11.60
2018-04-07T21:25:18.504Z,11.80
2018-04-07T21:27:53.535Z,11.90
2018-04-07T21:30:27.954Z,11.80
2018-04-07T21:33:02.756Z,11.80
2018-04-07T21:35:37.274Z,11.80
2018-04-07T21:38:12.011Z,11.70
2018-04-07T21:40:45.699Z,11.70
2018-04-07T21:43:20.143Z,11.50
2018-04-07T21:45:54.777Z,11.40
2018-04-07T21:48:30.543Z,11.40
2018-04-07T21:51:04.964Z,11.20
2018-04-07T21:53:38.761Z,11.20
2018-04-07T21:56:13.657Z,11.20
2018-04-07T21:58:47.490Z,11.20
2018-04-07T22:01:22.237Z,10.90
2018-04-07T22:03:56.617Z,10.80
2018-04-07T22:06:31.619Z,10.60
2018-04-07T22:09:06.397Z,10.60
2018-04-07T22:11:40.274Z,10.60
2018-04-07T22:14:14.602Z,10.60
2018-04-07T22:16:49.241Z,10.60
2018-04-07T22:19:23.856Z,10.50
2018-04-07T22:21:57.763Z,10.50
2018-04-07T22:24:31.347Z,10.30
2018-04-07T22:27:05.460Z,10.30
2018-04-07T22:29:41.666Z,10.20
2018-04-07T22:32:16.230Z,10.10
2018-04-07T22:34:50.149Z,10.10
2018-04-07T22:37:24.756Z,10.00
2018-04-07T22:39:58.465Z,10.00
2018-04-07T22:42:32.604Z,10.10
2018-04-07T22:45:07.516Z,9.90
2018-04-07T22:47:41.433Z,9.90
2018-04-07T22:50:15.270Z,9.80
2018-04-07T22:52:49.989Z,9.80
2018-04-07T22:55:24.661Z,9.90
2018-04-07T22:57:58.658Z,9.90
2018-04-07T23:00:33.120Z,9.80
2018-04-07T23:03:07.812Z,9.70
2018-04-07T23:05:42.268Z,9.70
2018-04-07T23:08:16.072Z,9.70
2018-04-07T23:10:49.980Z,9.40
2018-04-07T23:13:23.945Z,9.30
2018-04-07T23:15:58.073Z,9.30
2018-04-07T23:18:32.182Z,9.30
2018-04-07T23:21:06.030Z,9.30
2018-04-07T23:23:40.822Z,9.40
2018-04-07T23:26:15.170Z,9.30
2018-04-07T23:28:50.172Z,9.10
2018-04-07T23:31:24.207Z,9.00
2018-04-07T23:33:58.127Z,9.00
2018-04-07T23:36:32.604Z,8.90
2018-04-07T23:39:06.304Z,8.90
2018-04-07T23:41:39.929Z,9.00
2018-04-07T23:44:14.653Z,8.80
2018-04-07T23:46:48.513Z,8.80
2018-04-07T23:49:22.678Z,8.70
2018-04-07T23:51:56.734Z,8.60
2018-04-07T23:54:31.420Z,8.60
2018-04-07T23:57:06.012Z,8.50
2018-04-07T23:59:39.873Z,8.50
